createdAt,value
2018-02-23T00:00:51.435Z,1.60
2018-02-23T00:03:18.983Z,1.60
2018-02-23T00:05:46.852Z,1.60
2018-02-23T00:08:14.619Z,1.60
2018-02-23T00:10:42.381Z,1.40
2018-02-23T00:13:10.120Z,1.40
2018-02-23T00:15:37.627Z,1.60
2018-02-23T00:18:05.368Z,1.40
2018-02-23T00:20:32.876Z,1.10
2018-02-23T00:23:00.380Z,1.20
2018-02-23T00:25:27.898Z,1.30
2018-02-23T00:27:55.403Z,1.50
2018-02-23T00:30:22.956Z,1.60
2018-02-23T00:32:50.711Z,1.60
2018-02-23T00:35:18.418Z,1.50
2018-02-23T00:37:45.913Z,1.60
2018-02-23T00:40:13.419Z,1.60
2018-02-23T00:42:41.152Z,1.70
2018-02-23T00:45:08.656Z,1.40
2018-02-23T00:47:36.363Z,1.40
2018-02-23T00:50:04.143Z,1.30
2018-02-23T00:52:31.653Z,1.40
2018-02-23T00:54:59.148Z,1.30
2018-02-23T00:57:26.822Z,1.10
2018-02-23T00:59:54.458Z,1.00
2018-02-23T01:02:22.965Z,1.10
2018-02-23T01:04:50.472Z,1.10
2018-02-23T01:07:18.000Z,1.10
2018-02-23T01:09:46.283Z,1.20
2018-02-23T01:12:13.794Z,1.20
2018-02-23T01:14:41.474Z,1.10
2018-02-23T01:17:09.278Z,1.10
2018-02-23T01:19:36.768Z,1.10
2018-02-23T01:22:04.403Z,1.00
2018-02-23T01:24:31.903Z,1.00
2018-02-23T01:26:59.403Z,1.20
2018-02-23T01:29:27.141Z,1.20
2018-02-23T01:31:54.643Z,1.30
2018-02-23T01:34:22.219Z,1.20
2018-02-23T01:36:50.034Z,1.20
2018-02-23T01:39:17.541Z,1.00
2018-02-23T01:41:45.054Z,1.00
2018-02-23T01:44:12.805Z,0.90
2018-02-23T01:46:40.552Z,1.00
2018-02-23T01:49:08.313Z,1.00
2018-02-23T01:51:36.083Z,1.10
2018-02-23T01:54:03.602Z,1.00
2018-02-23T01:56:31.098Z,0.90
2018-02-23T01:58:58.734Z,0.80
2018-02-23T02:01:26.238Z,0.70
2018-02-23T02:03:55.247Z,0.60
2018-02-23T02:06:22.940Z,0.70
2018-02-23T02:08:50.739Z,0.70
2018-02-23T02:11:18.493Z,0.80
2018-02-23T02:13:46.008Z,0.60
2018-02-23T02:16:13.819Z,0.70
2018-02-23T02:18:41.435Z,0.80
2018-02-23T02:21:09.747Z,0.80
2018-02-23T02:23:37.260Z,0.90
2018-02-23T02:26:04.791Z,1.00
2018-02-23T02:28:33.804Z,0.70
2018-02-23T02:31:01.526Z,0.70
2018-02-23T02:33:29.037Z,0.60
2018-02-23T02:35:56.796Z,0.70
2018-02-23T02:38:24.330Z,0.60
2018-02-23T02:40:52.020Z,0.60
2018-02-23T02:43:19.728Z,0.50
2018-02-23T02:45:47.250Z,0.60
2018-02-23T02:48:14.990Z,0.50
2018-02-23T02:50:42.723Z,0.60
2018-02-23T02:53:10.220Z,0.40
2018-02-23T02:55:37.944Z,0.30
2018-02-23T02:58:05.440Z,0.30
2018-02-23T03:00:32.967Z,0.20
2018-02-23T03:03:00.456Z,0.40
2018-02-23T03:05:29.035Z,0.40
2018-02-23T03:07:56.764Z,0.30
2018-02-23T03:10:24.511Z,0.50
2018-02-23T03:12:52.019Z,0.50
2018-02-23T03:15:19.709Z,0.60
2018-02-23T03:17:47.595Z,0.70
2018-02-23T03:20:15.095Z,0.90
2018-02-23T03:22:43.364Z,0.80
2018-02-23T03:25:11.734Z,0.70
2018-02-23T03:27:39.231Z,0.70
2018-02-23T03:30:06.902Z,0.60
2018-02-23T03:32:34.695Z,0.70
2018-02-23T03:35:02.208Z,0.70
2018-02-23T03:37:29.889Z,0.70
2018-02-23T03:39:57.383Z,0.80
2018-02-23T03:42:24.908Z,0.70
2018-02-23T03:44:52.596Z,0.60
2018-02-23T03:47:20.104Z,0.50
2018-02-23T03:49:47.789Z,0.50
2018-02-23T03:52:15.284Z,0.70
2018-02-23T03:54:42.803Z,0.70
2018-02-23T03:57:10.544Z,0.70
2018-02-23T03:59:38.207Z,0.60
2018-02-23T04:02:05.724Z,0.70
2018-02-23T04:04:33.472Z,0.60
2018-02-23T04:07:00.980Z,0.70
2018-02-23T04:09:28.653Z,0.60
2018-02-23T04:11:56.160Z,0.60
2018-02-23T04:14:23.668Z,0.80
2018-02-23T04:16:51.348Z,0.80
2018-02-23T04:19:18.848Z,0.90
2018-02-23T04:21:47.870Z,0.70
2018-02-23T04:24:15.412Z,0.70
2018-02-23T04:26:43.688Z,0.90
2018-02-23T04:29:11.201Z,0.90
2018-02-23T04:31:38.880Z,1.00
2018-02-23T04:34:06.380Z,0.80
2018-02-23T04:36:33.871Z,0.50
2018-02-23T04:39:01.804Z,0.30
2018-02-23T04:41:29.295Z,0.30
2018-02-23T04:43:56.805Z,0.30
2018-02-23T04:46:24.488Z,0.30
2018-02-23T04:48:51.996Z,0.20
2018-02-23T04:51:19.515Z,0.30
2018-02-23T04:53:47.181Z,0.30
2018-02-23T04:56:14.975Z,0.20
2018-02-23T04:58:42.491Z,0.20
2018-02-23T05:01:10.192Z,0.30
2018-02-23T05:03:37.957Z,0.40
2018-02-23T05:06:06.166Z,0.20
2018-02-23T05:08:34.437Z,0.30
2018-02-23T05:11:02.166Z,0.20
2018-02-23T05:13:29.680Z,0.40
2018-02-23T05:15:57.183Z,0.40
2018-02-23T05:18:24.701Z,0.40
2018-02-23T05:20:52.207Z,0.10
2018-02-23T05:23:19.736Z,0.10
2018-02-23T05:25:47.520Z,0.20
2018-02-23T05:28:15.284Z,0.10
2018-02-23T05:30:43.111Z,0.00
2018-02-23T05:33:10.619Z,-0.40
2018-02-23T05:35:38.261Z,-0.50
2018-02-23T05:38:05.902Z,-0.40
2018-02-23T05:40:33.471Z,-0.60
2018-02-23T05:43:01.124Z,-0.50
2018-02-23T05:45:28.633Z,-0.40
2018-02-23T05:47:56.137Z,-0.20
2018-02-23T05:50:23.652Z,-0.30
2018-02-23T05:52:51.397Z,-0.60
2018-02-23T05:55:18.948Z,-0.70
2018-02-23T05:57:46.586Z,-0.80
2018-02-23T06:00:14.112Z,-0.80
2018-02-23T06:02:41.696Z,-0.60
2018-02-23T06:05:09.196Z,-0.80
2018-02-23T06:07:36.743Z,-0.50
2018-02-23T06:10:04.283Z,-0.70
2018-02-23T06:12:31.956Z,-0.90
2018-02-23T06:14:59.724Z,-0.90
2018-02-23T06:17:32.989Z,-1.00
2018-02-23T06:20:06.224Z,-1.10
2018-02-23T06:22:33.739Z,-0.90
2018-02-23T06:25:01.317Z,-0.90
2018-02-23T06:27:28.822Z,-0.90
2018-02-23T06:29:57.364Z,-1.00
2018-02-23T06:32:24.904Z,-1.00
2018-02-23T06:34:52.575Z,-1.00
2018-02-23T06:37:20.702Z,-0.90
2018-02-23T06:39:48.215Z,-0.80
2018-02-23T06:42:15.756Z,-1.10
2018-02-23T06:44:43.315Z,-1.00
2018-02-23T06:47:11.703Z,-0.90
2018-02-23T06:49:39.468Z,-0.80
2018-02-23T06:52:06.985Z,-1.00
2018-02-23T06:54:34.495Z,1.10
2018-02-23T06:57:02.177Z,1.70
2018-02-23T06:59:31.395Z,1.70
2018-02-23T07:01:58.910Z,1.70
2018-02-23T07:04:26.516Z,1.30
2018-02-23T07:06:54.818Z,0.40
2018-02-23T07:09:22.328Z,0.30
2018-02-23T07:11:49.954Z,0.10
2018-02-23T07:14:17.730Z,-0.50
2018-02-23T07:16:45.252Z,-0.50
2018-02-23T07:19:12.790Z,-0.60
2018-02-23T07:21:41.183Z,-0.70
2018-02-23T07:24:08.684Z,-0.80
2018-02-23T07:26:36.240Z,-0.70
2018-02-23T07:29:03.765Z,-0.70
2018-02-23T07:31:31.451Z,-0.80
2018-02-23T07:33:59.263Z,-0.90
2018-02-23T07:36:26.987Z,-0.90
2018-02-23T07:38:54.611Z,-0.90
2018-02-23T07:41:22.169Z,-1.00
2018-02-23T07:43:49.681Z,-1.00
2018-02-23T07:46:18.072Z,-0.70
2018-02-23T07:48:45.613Z,-0.70
2018-02-23T07:51:14.063Z,-0.60
2018-02-23T07:53:41.659Z,-0.70
2018-02-23T07:56:09.189Z,-1.00
2018-02-23T07:58:36.708Z,-1.00
2018-02-23T08:01:04.302Z,-0.90
2018-02-23T08:03:31.852Z,-0.70
2018-02-23T08:05:59.369Z,-0.50
2018-02-23T08:08:27.724Z,-0.70
2018-02-23T08:10:55.291Z,-0.70
2018-02-23T08:13:22.804Z,-0.60
2018-02-23T08:15:50.311Z,-1.00
2018-02-23T08:18:18.044Z,-0.80
2018-02-23T08:20:45.814Z,-0.60
2018-02-23T08:23:13.332Z,-0.30
2018-02-23T08:25:40.974Z,-0.10
2018-02-23T08:28:08.902Z,0.00
2018-02-23T08:30:36.424Z,-0.10
2018-02-23T08:33:04.010Z,-0.30
2018-02-23T08:35:31.765Z,-0.50
2018-02-23T08:37:59.269Z,-0.50
2018-02-23T08:40:27.343Z,-0.30
2018-02-23T08:42:54.863Z,-0.40
2018-02-23T08:45:22.407Z,-0.50
2018-02-23T08:47:49.971Z,-0.50
2018-02-23T08:50:17.743Z,-0.30
2018-02-23T08:52:45.479Z,-0.20
2018-02-23T08:55:13.239Z,-0.70
2018-02-23T08:57:40.744Z,-0.60
2018-02-23T09:00:17.301Z,-0.40
2018-02-23T09:02:44.839Z,-0.40
2018-02-23T09:05:12.615Z,-0.40
2018-02-23T09:07:40.380Z,-0.50
2018-02-23T09:10:07.911Z,-0.40
2018-02-23T09:12:35.495Z,-0.20
2018-02-23T09:15:03.052Z,0.00
2018-02-23T09:17:30.556Z,-0.10
2018-02-23T09:19:58.246Z,-0.20
2018-02-23T09:22:25.759Z,0.10
2018-02-23T09:24:53.505Z,-0.10
2018-02-23T09:27:21.064Z,-0.30
2018-02-23T09:29:48.720Z,-0.40
2018-02-23T09:32:37.747Z,-0.40
2018-02-23T09:35:05.264Z,-0.40
2018-02-23T09:37:33.543Z,0.00
2018-02-23T09:40:01.068Z,-0.10
2018-02-23T09:42:28.728Z,0.10
2018-02-23T09:44:56.249Z,0.20
2018-02-23T09:47:23.947Z,0.30
2018-02-23T09:49:51.484Z,0.30
2018-02-23T09:52:19.803Z,0.20
2018-02-23T09:54:47.527Z,0.20
2018-02-23T09:57:15.043Z,0.50
2018-02-23T09:59:42.770Z,0.50
2018-02-23T10:02:10.273Z,0.50
2018-02-23T10:04:37.784Z,0.70
2018-02-23T10:07:05.291Z,0.70
2018-02-23T10:09:32.815Z,0.70
2018-02-23T10:12:00.353Z,0.70
2018-02-23T10:14:27.863Z,0.70
2018-02-23T10:16:55.380Z,0.50
2018-02-23T10:19:22.879Z,0.80
2018-02-23T10:21:50.391Z,0.90
2018-02-23T10:24:17.904Z,1.20
2018-02-23T10:26:45.419Z,1.10
2018-02-23T10:29:14.435Z,1.20
2018-02-23T10:31:42.096Z,1.20
2018-02-23T10:34:09.621Z,1.00
2018-02-23T10:36:37.127Z,1.00
2018-02-23T10:39:04.632Z,1.20
2018-02-23T10:41:32.271Z,1.30
2018-02-23T10:43:59.774Z,1.50
2018-02-23T10:46:27.287Z,1.60
2018-02-23T10:48:54.807Z,1.70
2018-02-23T10:51:23.084Z,1.10
2018-02-23T10:53:50.591Z,1.00
2018-02-23T10:56:18.099Z,1.10
2018-02-23T10:58:46.381Z,1.50
2018-02-23T11:01:13.898Z,1.50
2018-02-23T11:03:41.458Z,1.20
2018-02-23T11:06:08.955Z,1.20
2018-02-23T11:08:36.478Z,1.30
2018-02-23T11:11:05.487Z,1.00
2018-02-23T11:13:33.187Z,0.90
2018-02-23T11:16:00.975Z,1.00
2018-02-23T11:18:28.493Z,1.00
2018-02-23T11:20:56.224Z,1.20
2018-02-23T11:23:24.047Z,1.30
2018-02-23T11:25:52.260Z,1.30
2018-02-23T11:28:19.783Z,1.20
2018-02-23T11:30:47.295Z,1.40
2018-02-23T11:33:14.843Z,1.20
2018-02-23T11:35:42.340Z,1.30
2018-02-23T11:38:09.929Z,1.50
2018-02-23T11:40:38.423Z,1.50
2018-02-23T11:43:06.639Z,1.50
2018-02-23T11:45:34.151Z,1.40
2018-02-23T11:48:01.678Z,1.50
2018-02-23T11:50:29.260Z,1.40
2018-02-23T11:52:56.744Z,1.40
2018-02-23T11:55:24.255Z,1.10
2018-02-23T11:57:51.765Z,0.90
2018-02-23T12:00:19.263Z,1.10
2018-02-23T12:02:46.771Z,1.40
2018-02-23T12:05:14.301Z,1.40
2018-02-23T12:07:41.876Z,1.30
2018-02-23T12:10:11.163Z,1.50
2018-02-23T12:12:38.665Z,1.50
2018-02-23T12:15:06.394Z,1.60
2018-02-23T12:17:34.762Z,1.80
2018-02-23T12:20:02.287Z,2.00
2018-02-23T12:22:29.790Z,2.10
2018-02-23T12:24:57.413Z,2.20
2018-02-23T12:27:24.916Z,2.00
2018-02-23T12:29:52.451Z,2.00
2018-02-23T12:32:20.110Z,1.80
2018-02-23T12:34:47.623Z,1.80
2018-02-23T12:37:15.140Z,1.90
2018-02-23T12:39:42.801Z,2.10
2018-02-23T12:42:10.305Z,2.10
2018-02-23T12:44:37.809Z,2.00
2018-02-23T12:47:05.326Z,2.20
2018-02-23T12:49:32.894Z,2.30
2018-02-23T12:52:00.408Z,2.20
2018-02-23T12:54:27.913Z,2.10
2018-02-23T12:56:55.610Z,2.00
2018-02-23T12:59:23.118Z,1.80
2018-02-23T13:01:50.791Z,1.50
2018-02-23T13:04:18.587Z,1.60
2018-02-23T13:06:46.099Z,1.90
2018-02-23T13:09:13.609Z,2.00
2018-02-23T13:11:41.129Z,2.10
2018-02-23T13:14:08.706Z,2.20
2018-02-23T13:16:36.484Z,2.40
2018-02-23T13:19:04.688Z,2.60
2018-02-23T13:21:32.960Z,2.60
2018-02-23T13:24:00.483Z,2.60
2018-02-23T13:26:28.004Z,2.10
2018-02-23T13:28:55.545Z,2.10
2018-02-23T13:31:23.045Z,2.10
2018-02-23T13:33:50.831Z,1.60
2018-02-23T13:36:18.589Z,1.80
2018-02-23T13:38:46.093Z,2.10
2018-02-23T13:41:19.147Z,2.10
2018-02-23T13:43:46.800Z,2.10
2018-02-23T13:46:14.348Z,2.00
2018-02-23T13:48:41.844Z,2.10
2018-02-23T13:51:10.103Z,2.50
2018-02-23T13:53:43.413Z,2.60
2018-02-23T13:56:10.916Z,2.70
2018-02-23T13:58:38.424Z,2.70
2018-02-23T14:01:05.932Z,2.50
2018-02-23T14:03:33.471Z,2.50
2018-02-23T14:06:04.065Z,2.60
2018-02-23T14:08:31.799Z,2.60
2018-02-23T14:10:59.304Z,2.60
2018-02-23T14:13:27.060Z,2.70
2018-02-23T14:15:54.783Z,2.80
2018-02-23T14:18:22.297Z,2.60
2018-02-23T14:20:49.806Z,2.60
2018-02-23T14:23:17.316Z,2.70
2018-02-23T14:25:44.816Z,2.50
2018-02-23T14:28:12.332Z,2.50
2018-02-23T14:30:39.838Z,2.50
2018-02-23T14:33:07.352Z,2.60
2018-02-23T14:35:34.862Z,2.60
2018-02-23T14:38:02.508Z,2.60
2018-02-23T14:40:30.010Z,2.60
2018-02-23T14:42:57.741Z,2.60
2018-02-23T14:45:25.493Z,2.50
2018-02-23T14:47:53.004Z,2.20
2018-02-23T14:50:32.405Z,2.30
2018-02-23T14:53:00.146Z,2.80
2018-02-23T14:55:27.682Z,3.30
2018-02-23T14:57:55.199Z,3.50
2018-02-23T15:00:23.463Z,2.70
2018-02-23T15:02:52.123Z,2.70
2018-02-23T15:05:19.627Z,2.70
2018-02-23T15:07:47.340Z,2.70
2018-02-23T15:10:14.856Z,2.70
2018-02-23T15:12:42.368Z,2.20
2018-02-23T15:15:09.890Z,2.30
2018-02-23T15:17:38.325Z,2.30
2018-02-23T15:20:05.912Z,2.10
2018-02-23T15:22:33.406Z,2.30
2018-02-23T15:25:01.319Z,2.30
2018-02-23T15:27:28.819Z,2.20
2018-02-23T15:29:56.345Z,1.80
2018-02-23T15:32:40.651Z,1.80
2018-02-23T15:35:08.168Z,1.80
2018-02-23T15:37:35.668Z,1.90
2018-02-23T15:40:03.327Z,2.00
2018-02-23T15:42:30.835Z,2.10
2018-02-23T15:44:58.553Z,2.20
2018-02-23T15:47:28.292Z,2.00
2018-02-23T15:49:58.983Z,2.00
2018-02-23T15:52:26.483Z,2.00
2018-02-23T15:54:54.004Z,2.00
2018-02-23T15:57:21.896Z,1.70
2018-02-23T15:59:49.411Z,1.40
2018-02-23T16:02:16.924Z,1.40
2018-02-23T16:04:44.615Z,1.40
2018-02-23T16:07:12.110Z,1.00
2018-02-23T16:09:39.634Z,1.10
2018-02-23T16:12:07.147Z,1.10
2018-02-23T16:14:34.929Z,0.90
2018-02-23T16:17:03.203Z,0.80
2018-02-23T16:19:30.806Z,0.80
2018-02-23T16:21:58.676Z,0.90
2018-02-23T16:24:26.198Z,0.80
2018-02-23T16:26:54.642Z,0.70
2018-02-23T16:29:22.182Z,0.70
2018-02-23T16:31:49.666Z,0.60
2018-02-23T16:34:17.179Z,1.10
2018-02-23T16:36:44.701Z,0.90
2018-02-23T16:39:12.215Z,0.60
2018-02-23T16:41:39.753Z,0.70
2018-02-23T16:44:07.266Z,0.30
2018-02-23T16:46:34.769Z,0.40
2018-02-23T16:49:02.278Z,0.50
2018-02-23T16:51:29.791Z,0.50
2018-02-23T16:53:58.213Z,0.50
2018-02-23T16:56:26.782Z,0.40
2018-02-23T16:58:54.275Z,0.40
2018-02-23T17:01:21.987Z,0.60
2018-02-23T17:03:49.751Z,0.50
2018-02-23T17:06:17.351Z,0.70
2018-02-23T17:08:46.245Z,0.40
2018-02-23T17:11:13.984Z,0.40
2018-02-23T17:13:41.733Z,0.50
2018-02-23T17:16:09.258Z,0.60
2018-02-23T17:18:36.775Z,0.60
2018-02-23T17:21:05.803Z,0.60
2018-02-23T17:23:33.376Z,0.60
2018-02-23T17:26:00.867Z,0.50
2018-02-23T17:28:28.568Z,0.20
2018-02-23T17:30:56.675Z,0.20
2018-02-23T17:33:24.180Z,0.40
2018-02-23T17:35:52.487Z,0.40
2018-02-23T17:38:20.099Z,0.40
2018-02-23T17:40:47.600Z,0.40
2018-02-23T17:43:15.126Z,0.20
2018-02-23T17:45:42.627Z,0.20
2018-02-23T17:48:10.132Z,0.10
2018-02-23T17:50:37.863Z,0.30
2018-02-23T17:53:05.629Z,0.40
2018-02-23T17:55:33.234Z,0.40
2018-02-23T17:58:00.720Z,0.50
2018-02-23T18:00:28.228Z,0.50
2018-02-23T18:02:55.738Z,0.50
2018-02-23T18:05:23.233Z,0.20
2018-02-23T18:07:52.452Z,0.10
2018-02-23T18:10:19.951Z,0.10
2018-02-23T18:12:47.456Z,0.10
2018-02-23T18:15:14.975Z,0.20
2018-02-23T18:17:42.495Z,0.20
2018-02-23T18:20:10.764Z,0.10
2018-02-23T18:22:39.480Z,0.10
2018-02-23T18:25:07.179Z,0.20
2018-02-23T18:27:34.704Z,-0.10
2018-02-23T18:30:02.392Z,0.10
2018-02-23T18:32:29.922Z,0.20
2018-02-23T18:34:57.609Z,0.30
2018-02-23T18:37:25.103Z,0.40
2018-02-23T18:39:52.807Z,0.30
2018-02-23T18:42:20.313Z,0.20
2018-02-23T18:44:48.642Z,0.20
2018-02-23T18:47:16.302Z,0.20
2018-02-23T18:49:43.812Z,0.20
2018-02-23T18:52:11.319Z,0.30
2018-02-23T18:54:38.831Z,0.30
2018-02-23T18:57:07.829Z,0.30
2018-02-23T18:59:35.566Z,0.30
2018-02-23T19:02:03.332Z,0.30
2018-02-23T19:04:30.845Z,0.40
2018-02-23T19:06:58.331Z,0.10
2018-02-23T19:09:25.966Z,0.10
2018-02-23T19:11:53.471Z,0.30
2018-02-23T19:14:20.977Z,0.10
2018-02-23T19:16:48.616Z,0.20
2018-02-23T19:19:16.141Z,0.30
2018-02-23T19:21:43.655Z,0.30
2018-02-23T19:24:11.161Z,0.30
2018-02-23T19:26:38.673Z,0.20
2018-02-23T19:29:06.183Z,0.10
2018-02-23T19:31:33.680Z,0.10
2018-02-23T19:34:01.821Z,0.20
2018-02-23T19:36:29.308Z,0.20
2018-02-23T19:38:56.830Z,0.10
2018-02-23T19:41:24.321Z,0.20
2018-02-23T19:43:53.088Z,0.00
2018-02-23T19:46:20.603Z,0.00
2018-02-23T19:48:48.128Z,0.10
2018-02-23T19:51:15.855Z,0.10
2018-02-23T19:53:43.380Z,0.10
2018-02-23T19:56:10.867Z,0.00
2018-02-23T19:58:38.372Z,0.00
2018-02-23T20:01:05.969Z,0.00
2018-02-23T20:03:33.471Z,0.10
2018-02-23T20:06:01.523Z,0.00
2018-02-23T20:08:29.799Z,-0.10
2018-02-23T20:10:57.372Z,-0.20
2018-02-23T20:13:25.095Z,-0.10
2018-02-23T20:15:52.616Z,0.00
2018-02-23T20:18:20.481Z,-0.10
2018-02-23T20:20:48.364Z,-0.10
2018-02-23T20:23:15.884Z,-0.10
2018-02-23T20:25:43.404Z,0.00
2018-02-23T20:28:10.924Z,0.00
2018-02-23T20:30:38.502Z,0.10
2018-02-23T20:33:06.012Z,0.10
2018-02-23T20:35:33.741Z,0.00
2018-02-23T20:38:01.262Z,0.00
2018-02-23T20:40:28.779Z,-0.10
2018-02-23T20:42:57.346Z,-0.10
2018-02-23T20:45:24.861Z,-0.10
2018-02-23T20:47:52.571Z,-0.20
2018-02-23T20:50:20.305Z,0.00
2018-02-23T20:52:47.824Z,-0.10
2018-02-23T20:55:15.541Z,-0.10
2018-02-23T20:57:44.703Z,-0.10
2018-02-23T21:00:12.259Z,-0.10
2018-02-23T21:02:40.327Z,0.00
2018-02-23T21:05:07.827Z,0.20
2018-02-23T21:07:35.620Z,-0.10
2018-02-23T21:10:03.354Z,-0.10
2018-02-23T21:12:30.894Z,-0.20
2018-02-23T21:14:58.564Z,-0.10
2018-02-23T21:17:26.080Z,-0.10
2018-02-23T21:19:53.797Z,0.10
2018-02-23T21:22:21.870Z,-0.20
2018-02-23T21:24:50.897Z,-0.20
2018-02-23T21:27:18.411Z,-0.20
2018-02-23T21:29:45.935Z,-0.20
2018-02-23T21:32:13.755Z,-0.20
2018-02-23T21:34:41.289Z,-0.20
2018-02-23T21:37:08.796Z,-0.30
2018-02-23T21:39:36.326Z,-0.30
2018-02-23T21:42:03.837Z,-0.30
2018-02-23T21:44:43.440Z,-0.60
2018-02-23T21:47:10.972Z,-0.70
2018-02-23T21:49:38.591Z,-0.60
2018-02-23T21:52:06.108Z,-0.50
2018-02-23T21:54:33.619Z,-0.60
2018-02-23T21:57:01.197Z,-0.60
2018-02-23T21:59:28.730Z,-0.60
2018-02-23T22:01:56.278Z,-0.60
2018-02-23T22:04:23.793Z,-0.70
2018-02-23T22:06:51.456Z,-0.50
2018-02-23T22:09:18.969Z,-0.60
2018-02-23T22:11:46.509Z,-0.60
2018-02-23T22:14:14.522Z,-0.50
2018-02-23T22:16:42.039Z,-0.40
2018-02-23T22:19:09.552Z,-0.50
2018-02-23T22:21:37.059Z,-0.50
2018-02-23T22:24:04.864Z,-0.70
2018-02-23T22:26:32.384Z,-0.70
2018-02-23T22:29:00.078Z,-0.70
2018-02-23T22:31:27.844Z,-0.70
2018-02-23T22:33:55.377Z,-0.70
2018-02-23T22:36:23.025Z,-0.70
2018-02-23T22:38:50.826Z,-0.70
2018-02-23T22:41:18.348Z,-0.60
2018-02-23T22:43:46.020Z,-0.50
2018-02-23T22:46:13.795Z,-0.50
2018-02-23T22:48:41.327Z,-0.50
2018-02-23T22:51:08.828Z,-0.50
2018-02-23T22:53:36.350Z,-0.50
2018-02-23T22:56:03.928Z,-0.60
2018-02-23T22:58:31.452Z,-0.70
2018-02-23T23:00:58.959Z,-0.70
2018-02-23T23:03:26.467Z,-0.60
2018-02-23T23:05:54.053Z,-0.80
2018-02-23T23:08:21.824Z,-0.80
2018-02-23T23:10:49.373Z,-0.80
2018-02-23T23:13:17.052Z,-0.70
2018-02-23T23:15:44.568Z,-0.70
2018-02-23T23:18:12.079Z,-0.80
2018-02-23T23:20:39.605Z,-0.70
2018-02-23T23:23:07.159Z,-0.80
2018-02-23T23:25:34.659Z,-0.80
2018-02-23T23:28:03.098Z,-0.70
2018-02-23T23:30:30.602Z,-0.70
2018-02-23T23:32:58.238Z,-0.50
2018-02-23T23:35:25.743Z,-0.60
2018-02-23T23:37:53.452Z,-0.70
2018-02-23T23:40:20.956Z,-0.80
2018-02-23T23:42:48.674Z,-0.80
2018-02-23T23:45:16.448Z,-0.90
2018-02-23T23:47:44.239Z,-0.80
2018-02-23T23:50:11.720Z,-0.80
2018-02-23T23:52:39.230Z,-0.70
2018-02-23T23:55:06.883Z,-0.80
2018-02-23T23:57:34.396Z,-0.70
